createdAt,value
2022-12-03T00:01:31.795Z,15.75
2022-12-03T00:03:59.659Z,18.17
2022-12-03T00:06:32.933Z,17.08
2022-12-03T00:09:02.230Z,16.45
2022-12-03T00:11:30.103Z,15.90
2022-12-03T00:13:59.263Z,15.43
2022-12-03T00:16:27.277Z,13.25
2022-12-03T00:18:55.010Z,14.55
2022-12-03T00:21:24.665Z,16.42
2022-12-03T00:23:52.713Z,14.23
2022-12-03T00:26:20.557Z,14.65
2022-12-03T00:28:49.224Z,14.80
2022-12-03T00:31:18.425Z,16.38
2022-12-03T00:33:46.281Z,15.18
2022-12-03T00:36:14.047Z,16.13
2022-12-03T00:38:41.749Z,15.88
2022-12-03T00:41:09.485Z,15.57
2022-12-03T00:43:37.209Z,14.73
2022-12-03T00:46:05.014Z,12.90
2022-12-03T00:48:34.229Z,16.65
2022-12-03T00:51:02.051Z,15.27
2022-12-03T00:53:29.896Z,14.55
2022-12-03T00:55:57.710Z,15.25
2022-12-03T00:58:25.412Z,17.10
2022-12-03T01:00:53.151Z,14.05
2022-12-03T01:03:20.915Z,13.63
2022-12-03T01:05:50.036Z,13.38
2022-12-03T01:08:17.967Z,14.00
2022-12-03T01:10:45.758Z,12.27
2022-12-03T01:13:13.640Z,13.85
2022-12-03T01:15:41.525Z,13.88
2022-12-03T01:18:09.306Z,12.77
2022-12-03T01:20:38.537Z,13.07
2022-12-03T01:23:07.619Z,12.02
2022-12-03T01:25:35.411Z,12.73
2022-12-03T01:28:03.170Z,10.65
2022-12-03T01:30:50.958Z,11.75
2022-12-03T01:33:18.051Z,11.07
2022-12-03T01:35:45.797Z,13.55
2022-12-03T01:38:14.891Z,11.63
2022-12-03T01:40:42.699Z,12.05
2022-12-03T01:43:10.396Z,12.38
2022-12-03T01:45:38.111Z,12.15
2022-12-03T01:48:06.022Z,13.07
2022-12-03T01:50:34.931Z,12.05
2022-12-03T01:53:05.000Z,11.57
2022-12-03T01:55:34.179Z,12.35
2022-12-03T01:58:03.211Z,11.65
2022-12-03T02:00:31.681Z,11.77
2022-12-03T02:03:01.772Z,13.60
2022-12-03T02:05:31.008Z,12.32
2022-12-03T02:07:59.750Z,12.00
2022-12-03T02:10:31.673Z,12.57
2022-12-03T02:13:03.938Z,11.30
2022-12-03T02:15:31.707Z,12.32
2022-12-03T02:17:59.733Z,12.52
2022-12-03T02:20:27.898Z,12.50
2022-12-03T02:23:05.755Z,11.95
2022-12-03T02:25:36.778Z,9.57
2022-12-03T02:28:06.971Z,11.85
2022-12-03T02:30:35.369Z,11.77
2022-12-03T02:33:04.133Z,11.30
2022-12-03T02:35:34.917Z,13.32
2022-12-03T02:38:14.231Z,12.45
2022-12-03T02:40:45.015Z,11.50
2022-12-03T02:43:14.888Z,11.38
2022-12-03T02:45:44.719Z,13.00
2022-12-03T02:48:17.084Z,14.18
2022-12-03T02:50:48.236Z,11.38
2022-12-03T02:53:20.099Z,10.73
2022-12-03T02:55:50.369Z,13.35
2022-12-03T02:58:19.065Z,11.60
2022-12-03T03:00:47.599Z,11.35
2022-12-03T03:03:19.854Z,11.98
2022-12-03T03:05:49.703Z,13.43
2022-12-03T03:08:18.817Z,12.65
2022-12-03T03:10:50.875Z,12.95
2022-12-03T03:13:21.023Z,13.10
2022-12-03T03:15:49.242Z,11.43
2022-12-03T03:18:17.871Z,12.05
2022-12-03T03:20:46.244Z,12.27
2022-12-03T03:23:17.563Z,11.10
2022-12-03T03:25:47.742Z,12.80
2022-12-03T03:28:17.683Z,13.68
2022-12-03T03:30:45.832Z,12.40
2022-12-03T03:33:16.867Z,12.93
2022-12-03T03:35:46.398Z,13.00
2022-12-03T03:38:14.589Z,14.35
2022-12-03T03:40:43.232Z,14.65
2022-12-03T03:43:11.104Z,14.60
2022-12-03T03:45:40.376Z,13.88
2022-12-03T03:48:08.242Z,13.65
2022-12-03T03:50:36.346Z,14.50
2022-12-03T03:53:05.705Z,14.68
2022-12-03T03:55:34.049Z,17.85
2022-12-03T03:58:02.113Z,13.70
2022-12-03T04:00:30.975Z,13.85
2022-12-03T04:03:00.010Z,11.95
2022-12-03T04:05:28.832Z,13.93
2022-12-03T04:07:56.647Z,14.50
2022-12-03T04:10:42.171Z,14.48
2022-12-03T04:13:09.889Z,14.75
2022-12-03T04:15:37.585Z,15.48
2022-12-03T04:18:24.065Z,14.77
2022-12-03T04:21:11.815Z,14.05
2022-12-03T04:23:39.154Z,14.88
2022-12-03T04:26:27.461Z,14.52
2022-12-03T04:28:55.450Z,13.48
2022-12-03T04:31:40.771Z,14.93
2022-12-03T04:34:27.859Z,13.60
2022-12-03T04:36:56.636Z,11.98
2022-12-03T04:39:24.357Z,14.18
2022-12-03T04:41:52.039Z,12.70
2022-12-03T04:44:36.117Z,14.38
2022-12-03T04:47:07.570Z,15.63
2022-12-03T04:49:37.930Z,12.77
2022-12-03T04:52:05.903Z,13.10
2022-12-03T04:54:34.300Z,13.77
2022-12-03T04:57:02.086Z,15.13
2022-12-03T04:59:29.936Z,16.20
2022-12-03T05:01:58.822Z,15.10
2022-12-03T05:04:26.701Z,15.32
2022-12-03T05:06:55.965Z,13.63
2022-12-03T05:09:23.810Z,13.98
2022-12-03T05:11:51.486Z,14.32
2022-12-03T05:14:19.317Z,15.88
2022-12-03T05:16:47.096Z,16.98
2022-12-03T05:19:14.883Z,16.13
2022-12-03T05:21:41.598Z,13.25
2022-12-03T05:24:10.662Z,15.63
2022-12-03T05:26:38.367Z,14.32
2022-12-03T05:29:06.087Z,18.08
2022-12-03T05:31:33.835Z,16.25
2022-12-03T05:34:01.596Z,17.42
2022-12-03T05:36:29.352Z,15.77
2022-12-03T05:38:57.079Z,15.80
2022-12-03T05:41:43.563Z,16.90
2022-12-03T05:44:14.023Z,14.73
2022-12-03T05:46:43.901Z,15.20
2022-12-03T05:49:11.647Z,16.90
2022-12-03T05:51:39.323Z,17.05
2022-12-03T05:54:07.141Z,14.88
2022-12-03T05:56:36.207Z,17.60
2022-12-03T05:59:03.919Z,13.80
2022-12-03T06:01:31.675Z,16.77
2022-12-03T06:03:59.448Z,15.75
2022-12-03T06:06:27.255Z,16.05
2022-12-03T06:08:55.186Z,15.60
2022-12-03T06:11:22.891Z,16.92
2022-12-03T06:13:52.013Z,18.42
2022-12-03T06:16:19.872Z,16.45
2022-12-03T06:18:47.706Z,17.38
2022-12-03T06:21:15.553Z,15.35
2022-12-03T06:23:44.670Z,16.48
2022-12-03T06:26:12.824Z,14.18
2022-12-03T06:28:41.238Z,18.75
2022-12-03T06:31:10.408Z,18.08
2022-12-03T06:33:38.204Z,20.00
2022-12-03T06:36:06.659Z,18.50
2022-12-03T06:38:34.423Z,20.17
2022-12-03T06:41:02.202Z,19.42
2022-12-03T06:43:30.887Z,19.90
2022-12-03T06:45:58.747Z,20.13
2022-12-03T06:48:27.905Z,16.92
2022-12-03T06:50:55.729Z,18.98
2022-12-03T06:53:23.513Z,18.88
2022-12-03T06:55:51.290Z,16.88
2022-12-03T06:58:19.074Z,18.98
2022-12-03T07:00:46.933Z,19.02
2022-12-03T07:03:14.800Z,19.98
2022-12-03T07:05:44.066Z,19.80
2022-12-03T07:08:11.905Z,19.42
2022-12-03T07:10:39.695Z,20.25
2022-12-03T07:13:07.591Z,17.83
2022-12-03T07:15:49.244Z,18.84
2022-12-03T07:18:17.145Z,20.23
2022-12-03T07:20:46.306Z,19.58
2022-12-03T07:23:14.106Z,19.58
2022-12-03T07:25:41.766Z,19.27
2022-12-03T07:28:09.540Z,17.88
2022-12-03T07:30:37.195Z,16.77
2022-12-03T07:33:04.903Z,20.23
2022-12-03T07:35:32.726Z,18.27
2022-12-03T07:38:01.841Z,19.45
2022-12-03T07:40:29.607Z,19.73
2022-12-03T07:42:57.372Z,16.63
2022-12-03T07:45:25.137Z,15.95
2022-12-03T07:47:53.143Z,18.75
2022-12-03T07:50:20.787Z,18.85
2022-12-03T07:52:48.528Z,18.40
2022-12-03T07:55:17.783Z,18.65
2022-12-03T07:57:45.890Z,18.00
2022-12-03T08:00:15.430Z,21.05
2022-12-03T08:02:43.327Z,21.75
2022-12-03T08:05:11.455Z,19.88
2022-12-03T08:07:39.423Z,20.17
2022-12-03T08:10:08.485Z,21.95
2022-12-03T08:12:43.577Z,19.08
2022-12-03T08:15:13.904Z,19.90
2022-12-03T08:17:42.489Z,18.58
2022-12-03T08:20:16.066Z,21.02
2022-12-03T08:22:48.613Z,18.93
2022-12-03T08:25:21.840Z,19.42
2022-12-03T08:27:51.941Z,22.10
2022-12-03T08:30:20.518Z,18.55
2022-12-03T08:32:49.034Z,21.70
2022-12-03T08:35:25.543Z,20.00
2022-12-03T08:37:59.807Z,20.17
2022-12-03T08:40:35.699Z,18.48
2022-12-03T08:43:13.779Z,17.73
2022-12-03T08:45:43.461Z,19.73
2022-12-03T08:48:37.724Z,20.95
2022-12-03T08:51:12.109Z,22.05
2022-12-03T08:56:21.676Z,19.95
2022-12-03T08:58:53.944Z,20.02
2022-12-03T09:01:31.011Z,18.38
2022-12-03T09:04:17.996Z,21.20
2022-12-03T09:06:48.566Z,20.40
2022-12-03T09:09:16.705Z,21.77
2022-12-03T09:11:44.966Z,20.80
2022-12-03T09:14:18.534Z,18.00
2022-12-03T09:16:48.034Z,18.92
2022-12-03T09:19:16.359Z,15.00
2022-12-03T09:21:44.709Z,18.17
2022-12-03T09:24:12.521Z,19.30
2022-12-03T09:26:40.559Z,18.58
2022-12-03T09:29:12.134Z,17.20
2022-12-03T09:31:41.982Z,16.80
2022-12-03T09:34:12.207Z,16.02
2022-12-03T09:36:40.644Z,18.67
2022-12-03T09:39:08.522Z,16.92
2022-12-03T09:41:37.020Z,17.92
2022-12-03T09:44:05.743Z,18.45
2022-12-03T09:46:36.163Z,18.52
2022-12-03T09:49:13.910Z,17.52
2022-12-03T09:51:45.112Z,17.02
2022-12-03T09:54:21.857Z,19.10
2022-12-03T09:56:50.110Z,18.42
2022-12-03T09:59:18.514Z,15.95
2022-12-03T10:01:46.430Z,15.93
2022-12-03T10:04:15.965Z,18.55
2022-12-03T10:06:45.995Z,15.90
2022-12-03T10:09:17.305Z,19.98
2022-12-03T10:11:45.470Z,19.02
2022-12-03T10:14:15.304Z,19.75
2022-12-03T10:16:43.243Z,18.17
2022-12-03T10:19:18.355Z,15.68
2022-12-03T10:21:48.054Z,17.13
2022-12-03T10:24:21.187Z,17.88
2022-12-03T10:26:50.895Z,21.67
2022-12-03T10:29:21.051Z,22.63
2022-12-03T10:31:56.804Z,20.80
2022-12-03T10:34:30.607Z,17.17
2022-12-03T10:37:15.171Z,15.65
2022-12-03T10:40:09.274Z,18.40
2022-12-03T10:42:39.340Z,15.70
2022-12-03T10:45:15.604Z,15.27
2022-12-03T10:47:44.468Z,15.60
2022-12-03T10:50:18.732Z,14.73
2022-12-03T10:52:48.403Z,17.15
2022-12-03T10:55:17.102Z,15.30
2022-12-03T10:57:46.385Z,12.48
2022-12-03T11:00:20.424Z,16.13
2022-12-03T11:02:56.191Z,14.85
2022-12-03T11:05:27.751Z,13.52
2022-12-03T11:07:57.896Z,16.13
2022-12-03T11:10:26.277Z,17.20
2022-12-03T11:13:29.096Z,16.17
2022-12-03T11:15:57.800Z,15.52
2022-12-03T11:19:01.141Z,14.60
2022-12-03T11:21:29.886Z,13.57
2022-12-03T11:24:18.339Z,13.60
2022-12-03T11:27:09.475Z,15.45
2022-12-03T11:29:55.757Z,16.05
2022-12-03T11:33:00.275Z,16.02
2022-12-03T11:35:29.793Z,16.48
2022-12-03T11:46:30.287Z,13.23
2022-12-03T11:49:00.790Z,15.38
2022-12-03T11:51:30.778Z,17.50
2022-12-03T11:54:02.394Z,16.25
2022-12-03T11:56:31.633Z,14.63
2022-12-03T11:59:01.703Z,16.13
2022-12-03T12:01:38.955Z,13.93
2022-12-03T12:04:12.201Z,15.40
2022-12-03T12:06:53.555Z,12.52
2022-12-03T12:09:52.026Z,13.20
2022-12-03T12:12:30.642Z,11.32
2022-12-03T12:14:59.876Z,12.68
2022-12-03T12:17:36.596Z,13.80
2022-12-03T12:20:25.195Z,10.45
2022-12-03T12:22:54.142Z,12.40
2022-12-03T12:25:42.449Z,11.20
2022-12-03T12:28:10.964Z,11.65
2022-12-03T12:30:41.351Z,12.75
2022-12-03T12:33:19.620Z,11.60
2022-12-03T12:35:47.548Z,10.48
2022-12-03T12:38:18.083Z,12.13
2022-12-03T12:40:49.462Z,9.57
2022-12-03T12:43:24.362Z,11.55
2022-12-03T12:45:54.548Z,10.55
2022-12-03T12:48:25.976Z,10.52
2022-12-03T12:51:00.113Z,8.10
2022-12-03T12:53:29.415Z,12.15
2022-12-03T12:55:59.495Z,7.78
2022-12-03T12:58:33.978Z,16.58
2022-12-03T13:03:36.110Z,11.52
2022-12-03T13:06:04.449Z,10.20
2022-12-03T13:08:34.916Z,9.82
2022-12-03T13:11:05.519Z,11.95
2022-12-03T13:13:43.376Z,11.45
2022-12-03T13:16:17.960Z,12.32
2022-12-03T13:18:49.685Z,15.55
2022-12-03T13:21:26.592Z,12.93
2022-12-03T13:23:56.813Z,10.98
2022-12-03T13:26:37.703Z,12.68
2022-12-03T13:29:11.998Z,12.88
2022-12-03T13:31:43.774Z,9.98
2022-12-03T13:34:19.756Z,11.48
2022-12-03T13:36:53.512Z,12.68
2022-12-03T13:39:31.459Z,15.13
2022-12-03T13:44:50.660Z,8.02
2022-12-03T13:47:21.680Z,11.38
2022-12-03T13:49:54.349Z,13.52
2022-12-03T13:52:26.032Z,12.60
2022-12-03T13:54:56.587Z,14.15
2022-12-03T13:57:24.557Z,12.30
2022-12-03T13:59:53.025Z,13.57
2022-12-03T14:02:21.590Z,14.07
2022-12-03T14:04:53.090Z,13.73
2022-12-03T14:07:26.633Z,12.75
2022-12-03T14:09:54.575Z,13.63
2022-12-03T14:12:30.237Z,12.10
2022-12-03T14:14:58.229Z,12.10
2022-12-03T14:17:25.974Z,15.77
2022-12-03T14:19:55.325Z,12.63
2022-12-03T14:22:25.314Z,11.85
2022-12-03T14:24:53.642Z,15.00
2022-12-03T14:27:22.168Z,13.55
2022-12-03T14:29:49.933Z,14.95
2022-12-03T14:32:17.765Z,13.20
2022-12-03T14:34:45.489Z,14.38
2022-12-03T14:37:14.833Z,12.82
2022-12-03T14:39:43.084Z,12.95
2022-12-03T14:42:16.836Z,11.48
2022-12-03T14:44:46.816Z,12.68
2022-12-03T14:47:16.197Z,19.52
2022-12-03T14:49:43.968Z,12.60
2022-12-03T14:52:12.689Z,16.33
2022-12-03T14:54:43.140Z,12.85
2022-12-03T14:57:12.287Z,12.25
2022-12-03T14:59:40.880Z,9.93
2022-12-03T15:02:09.563Z,12.02
2022-12-03T15:04:37.919Z,12.68
2022-12-03T15:07:06.057Z,12.05
2022-12-03T15:09:34.005Z,11.88
2022-12-03T15:12:05.686Z,12.32
2022-12-03T15:14:33.748Z,14.38
2022-12-03T15:17:01.582Z,14.15
2022-12-03T15:19:29.387Z,13.00
2022-12-03T15:21:57.092Z,13.90
2022-12-03T15:24:25.000Z,12.20
2022-12-03T15:26:53.521Z,12.85
2022-12-03T15:29:22.986Z,14.25
2022-12-03T15:31:50.776Z,12.73
2022-12-03T15:34:22.485Z,13.80
2022-12-03T15:36:50.924Z,12.07
2022-12-03T15:39:18.662Z,11.20
2022-12-03T15:41:46.399Z,13.07
2022-12-03T15:44:14.151Z,11.98
2022-12-03T15:46:43.315Z,12.52
2022-12-03T15:49:11.882Z,11.38
2022-12-03T15:51:39.599Z,10.25
2022-12-03T15:54:07.468Z,10.68
2022-12-03T15:56:37.564Z,13.75
2022-12-03T15:59:05.680Z,10.10
2022-12-03T16:01:33.720Z,10.63
2022-12-03T16:04:03.126Z,13.00
2022-12-03T16:06:30.932Z,11.40
2022-12-03T16:08:58.698Z,12.30
2022-12-03T16:11:26.764Z,11.15
2022-12-03T16:13:54.503Z,11.25
2022-12-03T16:16:22.372Z,10.88
2022-12-03T16:18:50.250Z,10.85
2022-12-03T16:21:23.504Z,4.57
2022-12-03T16:23:54.353Z,10.15
2022-12-03T16:26:22.136Z,9.90
2022-12-03T16:28:51.925Z,11.82
2022-12-03T16:31:21.699Z,12.80
2022-12-03T16:33:49.877Z,10.02
2022-12-03T16:36:19.042Z,9.32
2022-12-03T16:38:46.787Z,11.50
2022-12-03T16:41:14.501Z,10.55
2022-12-03T16:43:45.449Z,9.15
2022-12-03T16:46:25.954Z,7.78
2022-12-03T16:48:55.352Z,10.10
2022-12-03T16:51:24.914Z,10.77
2022-12-03T16:53:52.774Z,11.50
2022-12-03T16:56:21.358Z,9.45
2022-12-03T16:58:49.148Z,12.32
2022-12-03T17:01:17.106Z,12.45
2022-12-03T17:03:44.837Z,6.70
2022-12-03T17:06:12.655Z,12.25
2022-12-03T17:08:47.271Z,9.98
2022-12-03T17:11:16.983Z,10.38
2022-12-03T17:13:44.721Z,13.60
2022-12-03T17:16:12.448Z,12.88
2022-12-03T17:18:40.232Z,12.98
2022-12-03T17:21:07.915Z,10.95
2022-12-03T17:23:35.667Z,12.90
2022-12-03T17:26:04.906Z,11.27
2022-12-03T17:28:32.659Z,12.30
2022-12-03T17:31:00.441Z,11.43
2022-12-03T17:33:28.303Z,9.25
2022-12-03T17:35:56.018Z,12.27
2022-12-03T17:38:23.763Z,11.50
2022-12-03T17:40:51.595Z,11.82
2022-12-03T17:43:20.747Z,12.23
2022-12-03T17:45:48.575Z,13.00
2022-12-03T17:48:16.649Z,15.52
2022-12-03T17:50:44.459Z,12.18
2022-12-03T17:53:12.326Z,12.50
2022-12-03T17:55:44.713Z,14.80
2022-12-03T17:58:13.528Z,12.68
2022-12-03T18:00:42.743Z,13.00
2022-12-03T18:03:10.607Z,14.32
2022-12-03T18:05:38.430Z,11.95
2022-12-03T18:08:07.058Z,11.13
2022-12-03T18:10:34.907Z,11.50
2022-12-03T18:13:03.130Z,11.75
2022-12-03T18:15:31.502Z,15.48
2022-12-03T18:18:00.599Z,15.30
2022-12-03T18:20:28.572Z,11.38
2022-12-03T18:22:56.346Z,10.98
2022-12-03T18:25:24.170Z,8.65
2022-12-03T18:27:51.909Z,12.85
2022-12-03T18:30:19.708Z,11.65
2022-12-03T18:32:47.775Z,14.45
2022-12-03T18:35:17.135Z,12.35
2022-12-03T18:37:44.881Z,13.40
2022-12-03T18:40:19.807Z,14.13
2022-12-03T18:42:47.776Z,16.23
2022-12-03T18:45:16.402Z,12.07
2022-12-03T18:47:44.515Z,11.60
2022-12-03T18:50:13.065Z,14.00
2022-12-03T18:52:42.283Z,14.18
2022-12-03T18:55:17.474Z,13.07
2022-12-03T18:57:45.590Z,14.10
2022-12-03T19:00:14.728Z,13.32
2022-12-03T19:05:30.433Z,13.57
2022-12-03T19:07:59.810Z,11.10
2022-12-03T19:10:28.231Z,6.70
2022-12-03T19:12:56.024Z,10.93
2022-12-03T19:15:24.083Z,12.57
2022-12-03T19:17:52.255Z,12.80
2022-12-03T19:20:20.158Z,14.38
2022-12-03T19:22:47.930Z,12.48
2022-12-03T19:25:17.169Z,13.38
2022-12-03T19:27:44.884Z,11.95
2022-12-03T19:30:13.587Z,13.00
2022-12-03T19:32:41.323Z,11.43
2022-12-03T19:35:11.391Z,13.20
2022-12-03T19:37:39.194Z,13.90
2022-12-03T19:40:10.151Z,16.13
2022-12-03T19:42:39.654Z,14.63
2022-12-03T19:45:08.618Z,13.63
2022-12-03T19:47:37.016Z,15.65
2022-12-03T19:50:05.641Z,15.15
2022-12-03T19:52:36.366Z,17.88
2022-12-03T19:55:05.093Z,16.23
2022-12-03T19:57:32.825Z,14.45
2022-12-03T20:00:02.169Z,17.13
2022-12-03T20:02:40.206Z,15.32
2022-12-03T20:05:08.154Z,13.50
2022-12-03T20:07:35.954Z,16.00
2022-12-03T20:10:03.862Z,14.50
2022-12-03T20:12:31.586Z,14.13
2022-12-03T20:14:59.299Z,9.70
2022-12-03T20:17:28.459Z,14.00
2022-12-03T20:19:56.497Z,13.50
2022-12-03T20:22:24.428Z,14.10
2022-12-03T20:24:52.211Z,14.60
2022-12-03T20:27:22.991Z,15.48
2022-12-03T20:29:50.925Z,15.48
2022-12-03T20:32:18.870Z,15.15
2022-12-03T20:34:49.558Z,14.23
2022-12-03T20:37:17.648Z,11.07
2022-12-03T20:39:45.583Z,11.43
2022-12-03T20:42:13.335Z,12.65
2022-12-03T20:44:41.081Z,13.68
2022-12-03T20:47:08.852Z,11.38
2022-12-03T20:49:38.979Z,13.65
2022-12-03T20:52:08.117Z,13.05
2022-12-03T20:54:35.894Z,12.00
2022-12-03T20:57:04.076Z,13.38
2022-12-03T20:59:32.830Z,13.40
2022-12-03T21:02:00.653Z,11.73
2022-12-03T21:04:28.524Z,13.38
2022-12-03T21:06:56.289Z,11.05
2022-12-03T21:09:25.399Z,12.85
2022-12-03T21:11:53.126Z,13.52
2022-12-03T21:14:20.919Z,10.57
2022-12-03T21:19:37.638Z,8.20
2022-12-03T21:22:06.039Z,10.40
2022-12-03T21:24:35.394Z,12.68
2022-12-03T21:27:03.511Z,12.38
2022-12-03T21:29:31.346Z,11.15
2022-12-03T21:31:59.380Z,9.73
2022-12-03T21:34:31.309Z,11.93
2022-12-03T21:37:05.358Z,11.20
2022-12-03T21:39:33.116Z,9.80
2022-12-03T21:42:36.146Z,10.73
2022-12-03T21:44:50.229Z,9.63
2022-12-03T21:47:18.052Z,13.15
2022-12-03T21:49:45.865Z,11.32
2022-12-03T21:52:13.677Z,9.38
2022-12-03T21:54:41.437Z,5.47
2022-12-03T21:57:10.571Z,10.45
2022-12-03T21:59:38.308Z,11.18
2022-12-03T22:02:06.294Z,11.88
2022-12-03T22:04:34.169Z,10.55
2022-12-03T22:07:01.940Z,8.30
2022-12-03T22:09:29.729Z,8.40
2022-12-03T22:12:00.564Z,10.20
2022-12-03T22:14:29.830Z,11.25
2022-12-03T22:16:57.863Z,11.05
2022-12-03T22:19:26.670Z,9.73
2022-12-03T22:21:54.387Z,11.60
2022-12-03T22:24:23.723Z,9.65
2022-12-03T22:26:52.172Z,12.02
2022-12-03T22:29:19.943Z,12.50
2022-12-03T22:31:48.980Z,9.68
2022-12-03T22:34:16.780Z,11.80
2022-12-03T22:36:44.512Z,11.57
2022-12-03T22:39:12.798Z,8.40
2022-12-03T22:41:40.762Z,10.20
2022-12-03T22:44:08.448Z,10.93
2022-12-03T22:46:36.304Z,12.05
2022-12-03T22:49:07.613Z,10.65
2022-12-03T22:51:35.816Z,13.38
2022-12-03T22:54:03.715Z,10.32
2022-12-03T22:56:32.160Z,9.57
2022-12-03T22:58:59.975Z,10.80
2022-12-03T23:01:30.380Z,11.60
2022-12-03T23:03:58.474Z,10.57
2022-12-03T23:06:28.232Z,7.38
2022-12-03T23:08:56.954Z,13.02
2022-12-03T23:11:24.846Z,11.00
2022-12-03T23:13:52.806Z,12.02
2022-12-03T23:16:23.289Z,11.05
2022-12-03T23:18:51.535Z,10.93
2022-12-03T23:21:27.065Z,11.80
2022-12-03T23:23:58.611Z,11.65
2022-12-03T23:26:26.649Z,11.98
2022-12-03T23:28:54.514Z,11.93
2022-12-03T23:31:24.986Z,10.73
2022-12-03T23:33:53.799Z,11.65
2022-12-03T23:36:22.271Z,12.80
2022-12-03T23:38:50.172Z,11.55
2022-12-03T23:41:22.634Z,11.48
2022-12-03T23:43:50.373Z,14.00
2022-12-03T23:46:21.079Z,12.05
2022-12-03T23:48:49.461Z,11.25
2022-12-03T23:51:19.397Z,12.63
2022-12-03T23:53:47.499Z,10.18
2022-12-03T23:56:17.612Z,11.80
2022-12-03T23:58:47.123Z,10.02
